createdAt,value
2019-04-23T00:02:53.508Z,10.53
2019-04-23T00:05:29.055Z,10.42
2019-04-23T00:07:56.204Z,10.44
2019-04-23T00:10:28.649Z,10.40
2019-04-23T00:13:02.314Z,10.36
2019-04-23T00:16:17.084Z,10.39
2019-04-23T00:18:46.467Z,10.42
2019-04-23T00:21:26.661Z,10.39
2019-04-23T00:24:15.839Z,10.41
2019-04-23T00:29:26.366Z,10.31
2019-04-23T00:31:38.889Z,10.21
2019-04-23T00:34:10.894Z,10.33
2019-04-23T00:36:48.405Z,10.21
2019-04-23T00:39:18.689Z,10.30
2019-04-23T00:41:52.896Z,10.12
2019-04-23T00:44:22.842Z,10.10
2019-04-23T00:46:54.666Z,9.97
2019-04-23T00:49:32.680Z,9.98
2019-04-23T00:52:09.417Z,10.00
2019-04-23T00:54:41.107Z,10.06
2019-04-23T00:57:21.805Z,10.09
2019-04-23T00:59:53.719Z,10.12
2019-04-23T01:02:16.638Z,10.18
2019-04-23T01:04:55.900Z,10.23
2019-04-23T01:07:24.637Z,10.31
2019-04-23T01:10:10.143Z,10.31
2019-04-23T01:17:51.058Z,10.23
2019-04-23T01:20:31.875Z,10.18
2019-04-23T01:22:40.181Z,10.15
2019-04-23T01:25:45.703Z,10.12
2019-04-23T01:28:36.720Z,10.06
2019-04-23T01:31:08.877Z,10.10
2019-04-23T01:33:47.216Z,9.93
2019-04-23T01:36:23.362Z,9.95
2019-04-23T01:38:56.029Z,9.86
2019-04-23T01:41:19.883Z,9.62
2019-04-23T01:43:50.602Z,9.44
2019-04-23T01:46:29.207Z,9.37
2019-04-23T01:48:58.357Z,9.28
2019-04-23T01:51:39.895Z,9.31
2019-04-23T01:54:06.749Z,9.32
2019-04-23T01:56:33.484Z,9.18
2019-04-23T01:59:12.660Z,9.15
2019-04-23T02:01:51.950Z,9.11
2019-04-23T02:04:25.011Z,9.08
2019-04-23T02:06:55.974Z,9.03
2019-04-23T02:09:30.216Z,8.94
2019-04-23T02:11:59.064Z,8.80
2019-04-23T02:14:34.814Z,8.76
2019-04-23T02:17:13.964Z,8.72
2019-04-23T02:22:25.012Z,8.59
2019-04-23T02:24:59.390Z,8.57
2019-04-23T02:27:39.576Z,8.58
2019-04-23T02:30:15.776Z,8.59
2019-04-23T02:32:47.555Z,8.65
2019-04-23T02:35:17.296Z,8.61
2019-04-23T02:37:53.713Z,8.71
2019-04-23T02:40:23.375Z,8.66
2019-04-23T02:43:08.491Z,8.70
2019-04-23T02:45:27.416Z,8.71
2019-04-23T02:50:39.745Z,8.75
2019-04-23T02:53:14.715Z,8.77
2019-04-23T02:55:50.465Z,8.75
2019-04-23T02:58:31.668Z,8.73
2019-04-23T03:01:06.507Z,8.77
2019-04-23T03:08:36.274Z,8.61
2019-04-23T03:16:38.081Z,8.44
2019-04-23T03:19:35.832Z,8.35
2019-04-23T03:22:44.628Z,8.37
2019-04-23T03:25:06.996Z,8.28
2019-04-23T03:30:15.734Z,8.23
2019-04-23T03:33:39.157Z,8.20
2019-04-23T03:35:09.564Z,8.18
2019-04-23T03:37:48.932Z,8.04
2019-04-23T03:40:13.740Z,7.99
2019-04-23T03:43:02.401Z,7.91
2019-04-23T03:45:40.705Z,7.90
2019-04-23T03:48:06.021Z,7.85
2019-04-23T03:53:03.454Z,7.84
2019-04-23T03:55:45.351Z,7.77
2019-04-23T03:58:24.774Z,7.72
2019-04-23T04:01:00.983Z,7.63
2019-04-23T04:06:05.394Z,7.38
2019-04-23T04:08:25.744Z,7.36
2019-04-23T04:16:11.945Z,7.08
2019-04-23T04:18:44.372Z,6.95
2019-04-23T04:21:36.879Z,6.92
2019-04-23T04:24:20.336Z,6.81
2019-04-23T04:29:03.693Z,6.74
2019-04-23T04:39:02.525Z,6.59
2019-04-23T04:41:55.541Z,6.59
2019-04-23T04:44:38.307Z,6.57
2019-04-23T04:49:38.341Z,6.62
2019-04-23T04:57:02.620Z,6.74
2019-04-23T04:59:40.023Z,6.83
2019-04-23T05:02:14.488Z,6.83
2019-04-23T05:04:53.093Z,6.91
2019-04-23T05:07:21.727Z,6.93
2019-04-23T05:12:23.684Z,7.01
2019-04-23T05:17:51.851Z,7.03
2019-04-23T05:23:02.761Z,6.91
2019-04-23T05:25:17.435Z,6.74
2019-04-23T05:28:02.889Z,6.68
2019-04-23T05:30:31.726Z,6.70
2019-04-23T05:33:05.964Z,6.62
2019-04-23T05:38:18.633Z,6.54
2019-04-23T05:40:49.935Z,6.49
2019-04-23T05:43:13.042Z,6.54
2019-04-23T05:45:49.656Z,6.59
2019-04-23T05:48:31.132Z,6.67
2019-04-23T05:51:00.834Z,6.71
2019-04-23T05:53:27.809Z,6.72
2019-04-23T05:56:01.785Z,6.67
2019-04-23T05:58:36.900Z,6.49
2019-04-23T06:01:42.649Z,6.41
2019-04-23T06:03:57.702Z,6.40
2019-04-23T06:06:37.795Z,6.25
2019-04-23T06:08:58.669Z,6.25
2019-04-23T06:11:45.573Z,6.28
2019-04-23T06:16:44.602Z,6.39
2019-04-23T06:19:12.882Z,6.43
2019-04-23T06:24:26.111Z,6.39
2019-04-23T06:27:01.727Z,6.27
2019-04-23T06:29:32.179Z,6.27
2019-04-23T06:31:54.044Z,6.23
2019-04-23T06:34:36.409Z,6.28
2019-04-23T06:37:02.183Z,6.23
2019-04-23T06:42:23.448Z,6.03
2019-04-23T06:44:53.518Z,5.99
2019-04-23T06:47:21.905Z,6.01
2019-04-23T06:49:56.002Z,5.98
2019-04-23T06:52:41.857Z,5.99
2019-04-23T06:57:37.104Z,5.90
2019-04-23T07:00:29.563Z,6.02
2019-04-23T07:02:44.433Z,6.03
2019-04-23T07:05:15.808Z,6.14
2019-04-23T07:07:54.823Z,6.23
2019-04-23T07:10:24.955Z,6.43
2019-04-23T07:12:59.370Z,6.43
2019-04-23T07:15:42.394Z,6.45
2019-04-23T07:18:03.841Z,6.40
2019-04-23T07:20:36.093Z,6.36
2019-04-23T07:23:14.145Z,6.38
2019-04-23T07:25:40.386Z,6.36
2019-04-23T07:28:23.493Z,6.36
2019-04-23T07:30:55.908Z,6.48
2019-04-23T07:33:29.863Z,6.48
2019-04-23T07:36:00.274Z,6.46
2019-04-23T07:42:09.456Z,6.45
2019-04-23T07:44:49.629Z,6.52
2019-04-23T07:47:32.092Z,6.66
2019-04-23T07:50:09.909Z,6.77
2019-04-23T07:52:47.943Z,6.78
2019-04-23T07:55:16.310Z,6.80
2019-04-23T07:57:40.093Z,6.83
2019-04-23T08:00:07.628Z,6.86
2019-04-23T08:02:44.091Z,6.96
2019-04-23T08:07:54.138Z,7.11
2019-04-23T08:10:29.783Z,7.12
2019-04-23T08:13:00.930Z,7.29
2019-04-23T08:18:06.950Z,7.54
2019-04-23T08:20:47.435Z,7.73
2019-04-23T08:23:17.822Z,7.78
2019-04-23T08:26:22.555Z,7.90
2019-04-23T08:28:58.475Z,8.03
2019-04-23T08:31:27.057Z,8.02
2019-04-23T08:33:58.865Z,8.25
2019-04-23T08:36:27.894Z,8.14
2019-04-23T08:38:56.928Z,8.13
2019-04-23T08:41:46.233Z,8.19
2019-04-23T08:44:15.619Z,8.27
2019-04-23T08:46:56.762Z,8.39
2019-04-23T08:49:29.342Z,8.47
2019-04-23T08:52:00.605Z,8.61
2019-04-23T08:54:42.893Z,8.70
2019-04-23T08:59:47.361Z,8.85
2019-04-23T09:04:49.602Z,8.68
2019-04-23T09:07:29.347Z,8.57
2019-04-23T09:09:56.862Z,8.55
2019-04-23T09:12:28.597Z,8.56
2019-04-23T09:15:01.854Z,8.37
2019-04-23T09:17:34.609Z,8.40
2019-04-23T09:20:18.533Z,8.36
2019-04-23T09:22:36.472Z,8.31
2019-04-23T09:25:11.668Z,8.48
2019-04-23T09:27:42.366Z,8.41
2019-04-23T09:30:13.309Z,8.44
2019-04-23T09:32:51.593Z,8.40
2019-04-23T09:35:48.451Z,8.35
2019-04-23T09:38:38.241Z,8.29
2019-04-23T09:41:29.952Z,8.29
2019-04-23T09:49:39.534Z,8.62
2019-04-23T09:52:14.681Z,8.52
2019-04-23T09:55:04.750Z,8.67
2019-04-23T09:57:20.447Z,8.66
2019-04-23T09:59:52.909Z,8.55
2019-04-23T10:02:14.694Z,8.56
2019-04-23T10:04:50.602Z,8.62
2019-04-23T10:07:21.144Z,8.55
2019-04-23T10:09:40.517Z,8.59
2019-04-23T10:12:14.642Z,8.70
2019-04-23T10:14:59.348Z,8.74
2019-04-23T10:17:20.183Z,8.81
2019-04-23T10:19:53.043Z,8.95
2019-04-23T10:22:25.143Z,9.05
2019-04-23T10:24:57.184Z,9.28
2019-04-23T10:27:29.446Z,9.47
2019-04-23T10:30:01.734Z,9.85
2019-04-23T10:32:35.836Z,10.16
2019-04-23T10:35:21.038Z,10.18
2019-04-23T10:37:52.220Z,10.37
2019-04-23T10:40:23.917Z,10.26
2019-04-23T10:42:52.288Z,10.34
2019-04-23T10:45:53.163Z,10.48
2019-04-23T10:49:00.718Z,10.75
2019-04-23T10:51:33.885Z,10.81
2019-04-23T10:54:23.950Z,10.93
2019-04-23T10:59:35.449Z,10.69
2019-04-23T11:02:24.086Z,10.84
2019-04-23T11:12:44.872Z,10.32
2019-04-23T11:15:34.816Z,10.32
2019-04-23T11:17:54.890Z,10.14
2019-04-23T11:20:35.416Z,10.02
2019-04-23T11:28:16.225Z,10.01
2019-04-23T11:30:45.061Z,9.87
2019-04-23T11:33:31.635Z,9.75
2019-04-23T11:36:33.393Z,9.86
2019-04-23T11:38:51.209Z,9.79
2019-04-23T11:41:09.656Z,9.60
2019-04-23T11:43:38.050Z,9.73
2019-04-23T11:49:10.210Z,9.73
2019-04-23T11:53:58.060Z,9.87
2019-04-23T11:59:29.713Z,10.24
2019-04-23T12:04:48.017Z,10.72
2019-04-23T12:07:34.763Z,10.83
2019-04-23T12:10:17.211Z,10.94
2019-04-23T12:12:39.670Z,10.87
2019-04-23T12:15:18.308Z,11.03
2019-04-23T12:17:53.876Z,10.99
2019-04-23T12:20:28.903Z,10.69
2019-04-23T12:23:04.290Z,10.74
2019-04-23T12:25:32.452Z,10.82
2019-04-23T12:28:02.235Z,10.79
2019-04-23T12:30:40.714Z,10.77
2019-04-23T12:33:11.622Z,10.96
2019-04-23T12:35:39.014Z,10.90
2019-04-23T12:41:05.035Z,11.01
2019-04-23T12:43:28.613Z,10.96
2019-04-23T12:45:50.446Z,10.77
2019-04-23T12:48:39.809Z,10.76
2019-04-23T12:50:58.716Z,10.70
2019-04-23T12:53:34.738Z,10.57
2019-04-23T12:56:12.890Z,10.74
2019-04-23T12:58:58.110Z,10.76
2019-04-23T13:01:22.852Z,10.84
2019-04-23T13:03:45.565Z,10.75
2019-04-23T13:06:22.273Z,10.50
2019-04-23T13:09:01.446Z,10.23
2019-04-23T13:11:36.847Z,10.13
2019-04-23T13:14:08.862Z,9.89
2019-04-23T13:16:48.804Z,9.94
2019-04-23T13:19:30.207Z,10.03
2019-04-23T13:24:48.882Z,10.02
2019-04-23T13:27:29.367Z,10.32
2019-04-23T13:30:01.594Z,10.36
2019-04-23T13:32:36.027Z,10.35
2019-04-23T13:37:49.651Z,10.49
2019-04-23T13:40:21.354Z,10.53
2019-04-23T13:43:06.949Z,10.62
2019-04-23T13:45:53.596Z,10.64
2019-04-23T13:48:06.271Z,10.58
2019-04-23T13:50:38.847Z,10.60
2019-04-23T13:55:26.670Z,10.61
2019-04-23T14:03:28.636Z,10.68
2019-04-23T14:16:39.126Z,10.83
2019-04-23T14:19:04.659Z,10.95
2019-04-23T14:21:37.605Z,11.12
2019-04-23T14:27:09.635Z,11.21
2019-04-23T14:29:24.825Z,11.19
2019-04-23T14:32:03.067Z,11.21
2019-04-23T14:34:31.286Z,11.12
2019-04-23T14:39:43.726Z,11.12
2019-04-23T14:42:21.417Z,11.07
2019-04-23T14:44:52.481Z,11.00
2019-04-23T14:47:29.570Z,11.01
2019-04-23T14:50:28.112Z,11.08
2019-04-23T14:55:43.184Z,11.06
2019-04-23T14:58:07.923Z,11.14
2019-04-23T15:00:18.215Z,11.31
2019-04-23T15:02:56.581Z,11.31
2019-04-23T15:05:27.527Z,11.41
2019-04-23T15:07:58.409Z,11.48
2019-04-23T15:10:32.392Z,11.47
2019-04-23T15:12:59.662Z,11.41
2019-04-23T15:15:34.400Z,11.38
2019-04-23T15:18:18.679Z,11.35
2019-04-23T15:21:08.655Z,11.49
2019-04-23T15:23:41.214Z,11.47
2019-04-23T15:26:57.084Z,11.60
2019-04-23T15:28:09.111Z,11.51
2019-04-23T15:31:10.058Z,11.43
2019-04-23T15:33:48.889Z,11.34
2019-04-23T15:41:27.475Z,11.40
2019-04-23T15:43:58.965Z,11.39
2019-04-23T15:49:07.298Z,11.21
2019-04-23T15:51:35.566Z,11.31
2019-04-23T15:56:40.937Z,11.26
2019-04-23T15:59:21.811Z,11.12
2019-04-23T16:01:37.100Z,11.08
2019-04-23T16:03:51.708Z,11.03
2019-04-23T16:06:26.434Z,10.95
2019-04-23T16:09:17.881Z,10.98
2019-04-23T16:11:51.820Z,11.01
2019-04-23T16:14:40.689Z,10.99
2019-04-23T16:17:09.959Z,11.02
2019-04-23T16:19:54.153Z,11.09
2019-04-23T16:24:55.510Z,11.23
2019-04-23T16:27:36.566Z,11.29
2019-04-23T16:30:12.836Z,11.18
2019-04-23T16:33:06.938Z,11.29
2019-04-23T16:35:43.727Z,11.35
2019-04-23T16:40:44.489Z,11.22
2019-04-23T16:43:14.555Z,11.23
2019-04-23T16:45:54.780Z,11.23
2019-04-23T16:53:24.081Z,11.34
2019-04-23T16:58:55.134Z,11.34
2019-04-23T17:01:08.749Z,11.32
2019-04-23T17:11:21.394Z,11.11
2019-04-23T17:16:28.613Z,11.07
2019-04-23T17:19:01.850Z,11.09
2019-04-23T17:21:36.677Z,11.02
2019-04-23T17:24:15.157Z,10.92
2019-04-23T17:26:37.356Z,10.93
2019-04-23T17:29:20.336Z,10.88
2019-04-23T17:32:00.562Z,10.87
2019-04-23T17:34:30.687Z,10.89
2019-04-23T17:37:05.289Z,10.88
2019-04-23T17:42:55.399Z,10.90
2019-04-23T17:48:24.067Z,10.87
2019-04-23T17:56:18.436Z,10.85
2019-04-23T17:58:30.104Z,10.81
2019-04-23T18:01:24.498Z,10.90
2019-04-23T18:03:56.650Z,10.85
2019-04-23T18:09:03.471Z,10.83
2019-04-23T18:11:44.601Z,10.93
2019-04-23T18:14:02.688Z,10.86
2019-04-23T18:16:41.699Z,10.91
2019-04-23T18:21:50.570Z,10.85
2019-04-23T18:24:36.556Z,11.02
2019-04-23T18:30:08.038Z,10.84
2019-04-23T18:38:14.616Z,10.75
2019-04-23T18:41:02.500Z,10.84
2019-04-23T18:43:26.908Z,10.72
2019-04-23T18:53:46.838Z,10.71
2019-04-23T18:58:54.540Z,10.66
2019-04-23T19:06:41.343Z,10.80
2019-04-23T19:10:13.668Z,10.81
2019-04-23T19:17:50.475Z,10.84
2019-04-23T19:20:53.479Z,10.85
2019-04-23T19:23:09.541Z,10.91
2019-04-23T19:25:31.779Z,10.77
2019-04-23T19:28:23.923Z,10.79
2019-04-23T19:31:00.478Z,10.83
2019-04-23T19:33:35.303Z,10.83
2019-04-23T19:38:36.482Z,10.97
2019-04-23T19:41:02.177Z,10.89
2019-04-23T19:43:41.540Z,10.78
2019-04-23T19:46:42.002Z,10.82
2019-04-23T19:49:07.311Z,10.86
2019-04-23T19:54:01.786Z,10.79
2019-04-23T19:56:30.920Z,10.87
2019-04-23T19:58:56.716Z,10.82
2019-04-23T20:01:31.225Z,10.75
2019-04-23T20:04:04.181Z,10.78
2019-04-23T20:09:28.463Z,10.76
2019-04-23T20:14:21.344Z,10.81
2019-04-23T20:17:20.835Z,10.75
2019-04-23T20:19:33.003Z,10.81
2019-04-23T20:22:00.682Z,10.69
2019-04-23T20:24:41.833Z,10.65
2019-04-23T20:38:08.896Z,10.46
2019-04-23T20:40:23.691Z,10.43
2019-04-23T20:45:20.509Z,10.50
2019-04-23T20:47:58.085Z,10.36
2019-04-23T20:50:32.520Z,10.47
2019-04-23T20:53:01.357Z,10.50
2019-04-23T20:55:52.977Z,10.61
2019-04-23T20:58:21.621Z,10.55
2019-04-23T21:01:18.822Z,10.61
2019-04-23T21:09:13.318Z,10.71
2019-04-23T21:11:27.976Z,10.67
2019-04-23T21:16:37.523Z,10.68
2019-04-23T21:19:07.781Z,10.60
2019-04-23T21:22:06.044Z,10.59
2019-04-23T21:24:40.120Z,10.62
2019-04-23T21:27:40.916Z,10.55
2019-04-23T21:32:41.083Z,10.47
2019-04-23T21:37:53.780Z,10.47
2019-04-23T21:43:51.797Z,10.43
2019-04-23T21:46:28.196Z,10.38
2019-04-23T21:48:53.069Z,10.23
2019-04-23T21:51:22.843Z,10.33
2019-04-23T21:53:46.427Z,10.36
2019-04-23T21:58:57.910Z,10.42
2019-04-23T22:01:34.605Z,10.31
2019-04-23T22:06:35.798Z,10.34
2019-04-23T22:09:22.611Z,10.33
2019-04-23T22:24:19.480Z,10.13
2019-04-23T22:26:57.579Z,10.14
2019-04-23T22:29:33.449Z,10.09
2019-04-23T22:31:53.832Z,10.01
2019-04-23T22:39:45.918Z,9.88
2019-04-23T22:42:36.676Z,9.93
2019-04-23T22:45:10.676Z,9.96
2019-04-23T22:47:28.081Z,10.01
2019-04-23T22:50:05.905Z,9.93
2019-04-23T22:55:07.312Z,9.95
2019-04-23T22:58:04.410Z,9.87
2019-04-23T23:08:34.655Z,9.86
2019-04-23T23:11:03.458Z,9.83
2019-04-23T23:16:07.172Z,9.87
2019-04-23T23:18:44.009Z,9.94
2019-04-23T23:21:19.906Z,9.79
2019-04-23T23:23:52.975Z,9.90
2019-04-23T23:26:21.983Z,9.91
2019-04-23T23:28:55.017Z,9.93
2019-04-23T23:31:31.363Z,9.69
2019-04-23T23:34:04.392Z,9.71
2019-04-23T23:36:38.619Z,9.80
2019-04-23T23:39:16.020Z,9.77
2019-04-23T23:41:52.095Z,9.63
2019-04-23T23:46:56.524Z,9.73
2019-04-23T23:52:03.507Z,9.70
2019-04-23T23:54:17.667Z,9.81
2019-04-23T23:57:09.162Z,9.80
